sensor_id;sensor_type;location;lat;lon;timestamp;P1;durP1;ratioP1;P2;durP2;ratioP2
16699;SDS011;8466;52.286;21.124;2023-02-11T00:01:52;67.67;;;61.23;;
16699;SDS011;8466;52.286;21.124;2023-02-11T00:04:21;66.03;;;59.53;;
16699;SDS011;8466;52.286;21.124;2023-02-11T00:06:50;63.23;;;57.13;;
16699;SDS011;8466;52.286;21.124;2023-02-11T00:09:18;63.93;;;57.83;;
16699;SDS011;8466;52.286;21.124;2023-02-11T00:11:49;61.57;;;55.73;;
16699;SDS011;8466;52.286;21.124;2023-02-11T00:14:18;67.83;;;61.67;;
16699;SDS011;8466;52.286;21.124;2023-02-11T00:16:47;59.40;;;53.27;;
16699;SDS011;8466;52.286;21.124;2023-02-11T00:19:16;68.30;;;61.37;;
16699;SDS011;8466;52.286;21.124;2023-02-11T00:21:46;62.83;;;56.63;;
16699;SDS011;8466;52.286;21.124;2023-02-11T00:24:14;68.37;;;62.70;;
16699;SDS011;8466;52.286;21.124;2023-02-11T00:26:43;64.63;;;58.93;;
16699;SDS011;8466;52.286;21.124;2023-02-11T00:29:13;67.63;;;61.60;;
16699;SDS011;8466;52.286;21.124;2023-02-11T00:31:42;70.57;;;64.13;;
16699;SDS011;8466;52.286;21.124;2023-02-11T00:34:12;68.20;;;62.40;;
16699;SDS011;8466;52.286;21.124;2023-02-11T00:36:41;63.33;;;57.53;;
16699;SDS011;8466;52.286;21.124;2023-02-11T00:39:10;62.47;;;56.77;;
16699;SDS011;8466;52.286;21.124;2023-02-11T00:41:38;62.73;;;57.17;;
16699;SDS011;8466;52.286;21.124;2023-02-11T00:44:07;68.43;;;62.97;;
16699;SDS011;8466;52.286;21.124;2023-02-11T00:46:37;60.37;;;55.30;;
16699;SDS011;8466;52.286;21.124;2023-02-11T00:49:06;66.90;;;61.43;;
16699;SDS011;8466;52.286;21.124;2023-02-11T00:51:34;66.77;;;61.83;;
16699;SDS011;8466;52.286;21.124;2023-02-11T00:54:03;63.30;;;58.43;;
16699;SDS011;8466;52.286;21.124;2023-02-11T00:56:33;63.53;;;58.20;;
16699;SDS011;8466;52.286;21.124;2023-02-11T00:59:05;70.13;;;64.50;;
16699;SDS011;8466;52.286;21.124;2023-02-11T01:01:34;58.67;;;53.80;;
16699;SDS011;8466;52.286;21.124;2023-02-11T01:04:07;58.67;;;53.63;;
16699;SDS011;8466;52.286;21.124;2023-02-11T01:06:40;47.73;;;43.40;;
16699;SDS011;8466;52.286;21.124;2023-02-11T01:09:09;57.87;;;53.13;;
16699;SDS011;8466;52.286;21.124;2023-02-11T01:11:37;66.73;;;61.93;;
16699;SDS011;8466;52.286;21.124;2023-02-11T01:14:06;54.47;;;50.03;;
16699;SDS011;8466;52.286;21.124;2023-02-11T01:19:07;52.53;;;47.97;;
16699;SDS011;8466;52.286;21.124;2023-02-11T01:21:36;62.20;;;57.30;;
16699;SDS011;8466;52.286;21.124;2023-02-11T01:24:04;65.50;;;60.53;;
16699;SDS011;8466;52.286;21.124;2023-02-11T01:26:33;59.20;;;54.60;;
16699;SDS011;8466;52.286;21.124;2023-02-11T01:29:02;60.27;;;55.17;;
16699;SDS011;8466;52.286;21.124;2023-02-11T01:31:31;65.83;;;60.93;;
16699;SDS011;8466;52.286;21.124;2023-02-11T01:34:02;74.87;;;68.67;;
16699;SDS011;8466;52.286;21.124;2023-02-11T01:36:31;70.27;;;64.77;;
16699;SDS011;8466;52.286;21.124;2023-02-11T01:39:02;68.27;;;63.07;;
16699;SDS011;8466;52.286;21.124;2023-02-11T01:41:35;62.20;;;57.30;;
16699;SDS011;8466;52.286;21.124;2023-02-11T01:46:54;65.43;;;60.23;;
16699;SDS011;8466;52.286;21.124;2023-02-11T01:49:25;62.83;;;57.90;;
16699;SDS011;8466;52.286;21.124;2023-02-11T01:52:00;62.60;;;57.37;;
16699;SDS011;8466;52.286;21.124;2023-02-11T01:54:39;55.33;;;50.60;;
16699;SDS011;8466;52.286;21.124;2023-02-11T01:57:28;63.80;;;58.83;;
16699;SDS011;8466;52.286;21.124;2023-02-11T02:00:04;64.70;;;59.03;;
16699;SDS011;8466;52.286;21.124;2023-02-11T02:02:42;60.03;;;54.83;;
16699;SDS011;8466;52.286;21.124;2023-02-11T02:05:27;67.20;;;61.93;;
16699;SDS011;8466;52.286;21.124;2023-02-11T02:08:03;61.97;;;56.83;;
16699;SDS011;8466;52.286;21.124;2023-02-11T02:10:36;60.73;;;55.57;;
16699;SDS011;8466;52.286;21.124;2023-02-11T02:13:08;76.43;;;70.57;;
16699;SDS011;8466;52.286;21.124;2023-02-11T02:15:38;69.53;;;64.07;;
16699;SDS011;8466;52.286;21.124;2023-02-11T02:18:12;63.20;;;58.33;;
16699;SDS011;8466;52.286;21.124;2023-02-11T02:30:20;62.27;;;57.33;;
16699;SDS011;8466;52.286;21.124;2023-02-11T02:36:13;55.97;;;51.40;;
16699;SDS011;8466;52.286;21.124;2023-02-11T02:38:47;55.20;;;50.27;;
16699;SDS011;8466;52.286;21.124;2023-02-11T02:41:21;59.37;;;54.50;;
16699;SDS011;8466;52.286;21.124;2023-02-11T02:43:54;55.37;;;50.57;;
16699;SDS011;8466;52.286;21.124;2023-02-11T02:46:23;55.17;;;50.77;;
16699;SDS011;8466;52.286;21.124;2023-02-11T02:48:54;61.40;;;55.87;;
16699;SDS011;8466;52.286;21.124;2023-02-11T02:51:32;30.77;;;27.40;;
16699;SDS011;8466;52.286;21.124;2023-02-11T02:57:19;51.27;;;46.53;;
16699;SDS011;8466;52.286;21.124;2023-02-11T03:00:04;65.10;;;59.57;;
16699;SDS011;8466;52.286;21.124;2023-02-11T03:02:41;57.70;;;52.70;;
16699;SDS011;8466;52.286;21.124;2023-02-11T03:05:20;63.07;;;58.00;;
16699;SDS011;8466;52.286;21.124;2023-02-11T03:07:59;69.60;;;63.80;;
16699;SDS011;8466;52.286;21.124;2023-02-11T03:10:34;65.03;;;59.77;;
16699;SDS011;8466;52.286;21.124;2023-02-11T03:13:05;68.53;;;62.97;;
16699;SDS011;8466;52.286;21.124;2023-02-11T03:15:36;65.07;;;60.10;;
16699;SDS011;8466;52.286;21.124;2023-02-11T03:18:08;57.60;;;52.77;;
16699;SDS011;8466;52.286;21.124;2023-02-11T03:20:40;57.10;;;52.23;;
16699;SDS011;8466;52.286;21.124;2023-02-11T03:23:13;65.60;;;60.47;;
16699;SDS011;8466;52.286;21.124;2023-02-11T03:25:47;61.47;;;56.43;;
16699;SDS011;8466;52.286;21.124;2023-02-11T03:28:20;75.37;;;69.77;;
16699;SDS011;8466;52.286;21.124;2023-02-11T03:30:56;66.10;;;60.57;;
16699;SDS011;8466;52.286;21.124;2023-02-11T03:33:34;62.30;;;57.00;;
16699;SDS011;8466;52.286;21.124;2023-02-11T03:36:07;71.87;;;66.53;;
16699;SDS011;8466;52.286;21.124;2023-02-11T03:38:45;62.63;;;57.63;;
16699;SDS011;8466;52.286;21.124;2023-02-11T03:41:18;70.40;;;65.47;;
16699;SDS011;8466;52.286;21.124;2023-02-11T03:43:50;61.37;;;56.40;;
16699;SDS011;8466;52.286;21.124;2023-02-11T03:46:23;64.30;;;59.17;;
16699;SDS011;8466;52.286;21.124;2023-02-11T03:48:58;77.60;;;71.93;;
16699;SDS011;8466;52.286;21.124;2023-02-11T03:51:30;70.47;;;65.23;;
16699;SDS011;8466;52.286;21.124;2023-02-11T03:54:02;67.53;;;62.17;;
16699;SDS011;8466;52.286;21.124;2023-02-11T03:56:35;63.53;;;58.93;;
16699;SDS011;8466;52.286;21.124;2023-02-11T03:59:08;69.63;;;64.10;;
16699;SDS011;8466;52.286;21.124;2023-02-11T04:01:37;67.80;;;62.57;;
16699;SDS011;8466;52.286;21.124;2023-02-11T04:04:05;66.33;;;61.17;;
16699;SDS011;8466;52.286;21.124;2023-02-11T04:06:34;77.17;;;71.03;;
16699;SDS011;8466;52.286;21.124;2023-02-11T04:09:04;75.30;;;69.77;;
16699;SDS011;8466;52.286;21.124;2023-02-11T04:11:34;69.40;;;64.00;;
16699;SDS011;8466;52.286;21.124;2023-02-11T04:14:03;58.30;;;53.53;;
16699;SDS011;8466;52.286;21.124;2023-02-11T04:16:32;61.67;;;56.70;;
16699;SDS011;8466;52.286;21.124;2023-02-11T04:19:00;64.60;;;59.57;;
16699;SDS011;8466;52.286;21.124;2023-02-11T04:21:29;65.17;;;60.07;;
16699;SDS011;8466;52.286;21.124;2023-02-11T04:23:57;64.57;;;59.33;;
16699;SDS011;8466;52.286;21.124;2023-02-11T04:26:27;65.80;;;60.70;;
16699;SDS011;8466;52.286;21.124;2023-02-11T04:28:56;69.93;;;64.17;;
16699;SDS011;8466;52.286;21.124;2023-02-11T04:31:25;67.80;;;62.10;;
16699;SDS011;8466;52.286;21.124;2023-02-11T04:33:53;59.63;;;54.43;;
16699;SDS011;8466;52.286;21.124;2023-02-11T04:36:23;65.70;;;60.30;;
16699;SDS011;8466;52.286;21.124;2023-02-11T04:38:51;60.17;;;55.33;;
16699;SDS011;8466;52.286;21.124;2023-02-11T04:41:20;57.40;;;52.37;;
16699;SDS011;8466;52.286;21.124;2023-02-11T04:43:50;57.17;;;52.07;;
16699;SDS011;8466;52.286;21.124;2023-02-11T04:46:18;58.00;;;53.10;;
16699;SDS011;8466;52.286;21.124;2023-02-11T04:48:47;57.90;;;53.03;;
16699;SDS011;8466;52.286;21.124;2023-02-11T04:51:16;58.97;;;54.00;;
16699;SDS011;8466;52.286;21.124;2023-02-11T04:53:44;62.03;;;56.83;;
16699;SDS011;8466;52.286;21.124;2023-02-11T04:56:13;51.60;;;47.00;;
16699;SDS011;8466;52.286;21.124;2023-02-11T04:58:41;55.97;;;51.10;;
16699;SDS011;8466;52.286;21.124;2023-02-11T05:01:12;50.60;;;45.97;;
16699;SDS011;8466;52.286;21.124;2023-02-11T05:03:42;48.13;;;43.67;;
16699;SDS011;8466;52.286;21.124;2023-02-11T05:06:11;41.53;;;37.43;;
16699;SDS011;8466;52.286;21.124;2023-02-11T05:08:40;47.50;;;42.87;;
16699;SDS011;8466;52.286;21.124;2023-02-11T05:11:09;40.70;;;36.63;;
16699;SDS011;8466;52.286;21.124;2023-02-11T05:13:42;45.13;;;38.57;;
16699;SDS011;8466;52.286;21.124;2023-02-11T05:16:15;48.70;;;44.07;;
16699;SDS011;8466;52.286;21.124;2023-02-11T05:18:44;44.77;;;40.40;;
16699;SDS011;8466;52.286;21.124;2023-02-11T05:21:17;42.93;;;38.43;;
16699;SDS011;8466;52.286;21.124;2023-02-11T05:23:46;61.00;;;55.57;;
16699;SDS011;8466;52.286;21.124;2023-02-11T05:26:15;62.60;;;57.07;;
16699;SDS011;8466;52.286;21.124;2023-02-11T05:28:44;59.07;;;54.10;;
16699;SDS011;8466;52.286;21.124;2023-02-11T05:31:14;72.07;;;66.33;;
16699;SDS011;8466;52.286;21.124;2023-02-11T05:33:42;68.77;;;63.10;;
16699;SDS011;8466;52.286;21.124;2023-02-11T05:36:11;56.73;;;51.53;;
16699;SDS011;8466;52.286;21.124;2023-02-11T05:38:41;77.37;;;71.10;;
16699;SDS011;8466;52.286;21.124;2023-02-11T05:41:11;77.00;;;70.87;;
16699;SDS011;8466;52.286;21.124;2023-02-11T05:43:40;67.43;;;61.87;;
16699;SDS011;8466;52.286;21.124;2023-02-11T05:46:08;67.70;;;62.10;;
16699;SDS011;8466;52.286;21.124;2023-02-11T05:48:38;59.30;;;54.03;;
16699;SDS011;8466;52.286;21.124;2023-02-11T05:51:07;48.40;;;43.73;;
16699;SDS011;8466;52.286;21.124;2023-02-11T05:53:36;50.43;;;45.67;;
16699;SDS011;8466;52.286;21.124;2023-02-11T05:56:04;61.57;;;55.83;;
16699;SDS011;8466;52.286;21.124;2023-02-11T05:58:33;65.53;;;59.93;;
16699;SDS011;8466;52.286;21.124;2023-02-11T06:01:02;71.80;;;65.70;;
16699;SDS011;8466;52.286;21.124;2023-02-11T06:03:30;74.43;;;68.43;;
16699;SDS011;8466;52.286;21.124;2023-02-11T06:06:01;71.93;;;65.87;;
16699;SDS011;8466;52.286;21.124;2023-02-11T06:08:29;78.07;;;71.93;;
16699;SDS011;8466;52.286;21.124;2023-02-11T06:10:58;67.27;;;61.33;;
16699;SDS011;8466;52.286;21.124;2023-02-11T06:13:26;77.47;;;71.33;;
16699;SDS011;8466;52.286;21.124;2023-02-11T06:15:55;65.93;;;60.30;;
16699;SDS011;8466;52.286;21.124;2023-02-11T06:18:24;73.67;;;67.53;;
16699;SDS011;8466;52.286;21.124;2023-02-11T06:20:53;76.03;;;69.80;;
16699;SDS011;8466;52.286;21.124;2023-02-11T06:23:23;72.53;;;66.53;;
16699;SDS011;8466;52.286;21.124;2023-02-11T06:25:59;88.83;;;81.67;;
16699;SDS011;8466;52.286;21.124;2023-02-11T06:28:29;76.37;;;70.27;;
16699;SDS011;8466;52.286;21.124;2023-02-11T06:30:58;83.63;;;77.13;;
16699;SDS011;8466;52.286;21.124;2023-02-11T06:33:32;71.97;;;66.03;;
16699;SDS011;8466;52.286;21.124;2023-02-11T06:36:02;80.90;;;74.57;;
16699;SDS011;8466;52.286;21.124;2023-02-11T06:38:33;72.10;;;66.20;;
16699;SDS011;8466;52.286;21.124;2023-02-11T06:41:01;91.77;;;84.67;;
16699;SDS011;8466;52.286;21.124;2023-02-11T06:43:30;88.70;;;81.70;;
16699;SDS011;8466;52.286;21.124;2023-02-11T06:45:58;81.03;;;74.63;;
16699;SDS011;8466;52.286;21.124;2023-02-11T06:48:27;90.70;;;83.90;;
16699;SDS011;8466;52.286;21.124;2023-02-11T06:50:56;74.47;;;68.23;;
16699;SDS011;8466;52.286;21.124;2023-02-11T06:53:28;88.37;;;81.63;;
16699;SDS011;8466;52.286;21.124;2023-02-11T06:56:02;86.10;;;79.03;;
16699;SDS011;8466;52.286;21.124;2023-02-11T06:58:31;80.80;;;74.40;;
16699;SDS011;8466;52.286;21.124;2023-02-11T07:01:02;33.90;;;30.25;;
16699;SDS011;8466;52.286;21.124;2023-02-11T07:03:32;34.30;;;29.33;;
16699;SDS011;8466;52.286;21.124;2023-02-11T07:06:01;44.43;;;39.83;;
16699;SDS011;8466;52.286;21.124;2023-02-11T07:08:31;101.87;;;93.93;;
16699;SDS011;8466;52.286;21.124;2023-02-11T07:11:07;94.97;;;87.37;;
16699;SDS011;8466;52.286;21.124;2023-02-11T07:13:36;97.30;;;89.80;;
16699;SDS011;8466;52.286;21.124;2023-02-11T07:16:05;42.40;;;38.10;;
16699;SDS011;8466;52.286;21.124;2023-02-11T07:18:34;55.70;;;50.60;;
16699;SDS011;8466;52.286;21.124;2023-02-11T07:21:03;110.83;;;102.50;;
16699;SDS011;8466;52.286;21.124;2023-02-11T07:23:32;108.27;;;99.70;;
16699;SDS011;8466;52.286;21.124;2023-02-11T07:26:04;92.97;;;85.57;;
16699;SDS011;8466;52.286;21.124;2023-02-11T07:28:34;109.27;;;100.97;;
16699;SDS011;8466;52.286;21.124;2023-02-11T07:31:05;98.57;;;90.63;;
16699;SDS011;8466;52.286;21.124;2023-02-11T07:33:41;87.77;;;80.73;;
16699;SDS011;8466;52.286;21.124;2023-02-11T07:36:12;83.00;;;76.10;;
16699;SDS011;8466;52.286;21.124;2023-02-11T07:38:42;77.57;;;71.07;;
16699;SDS011;8466;52.286;21.124;2023-02-11T07:41:13;73.70;;;66.53;;
16699;SDS011;8466;52.286;21.124;2023-02-11T07:43:42;91.63;;;84.67;;
16699;SDS011;8466;52.286;21.124;2023-02-11T07:46:12;76.17;;;69.23;;
16699;SDS011;8466;52.286;21.124;2023-02-11T07:48:42;85.83;;;78.67;;
16699;SDS011;8466;52.286;21.124;2023-02-11T07:51:12;81.90;;;74.80;;
16699;SDS011;8466;52.286;21.124;2023-02-11T07:53:42;87.77;;;79.87;;
16699;SDS011;8466;52.286;21.124;2023-02-11T07:56:12;84.87;;;77.83;;
16699;SDS011;8466;52.286;21.124;2023-02-11T07:58:42;83.40;;;75.27;;
16699;SDS011;8466;52.286;21.124;2023-02-11T08:01:11;103.03;;;93.13;;
16699;SDS011;8466;52.286;21.124;2023-02-11T08:03:42;84.40;;;76.87;;
16699;SDS011;8466;52.286;21.124;2023-02-11T08:06:11;80.27;;;71.47;;
16699;SDS011;8466;52.286;21.124;2023-02-11T08:08:41;78.43;;;70.07;;
16699;SDS011;8466;52.286;21.124;2023-02-11T08:11:10;82.60;;;73.77;;
16699;SDS011;8466;52.286;21.124;2023-02-11T08:13:42;105.00;;;83.10;;
16699;SDS011;8466;52.286;21.124;2023-02-11T08:16:16;76.67;;;67.93;;
16699;SDS011;8466;52.286;21.124;2023-02-11T08:18:46;68.27;;;61.07;;
16699;SDS011;8466;52.286;21.124;2023-02-11T08:21:16;63.40;;;56.40;;
16699;SDS011;8466;52.286;21.124;2023-02-11T08:23:45;76.00;;;68.53;;
16699;SDS011;8466;52.286;21.124;2023-02-11T08:26:17;74.83;;;67.57;;
16699;SDS011;8466;52.286;21.124;2023-02-11T08:28:48;70.43;;;63.17;;
16699;SDS011;8466;52.286;21.124;2023-02-11T08:31:18;78.93;;;71.23;;
16699;SDS011;8466;52.286;21.124;2023-02-11T08:33:48;79.30;;;70.67;;
16699;SDS011;8466;52.286;21.124;2023-02-11T08:36:18;59.88;;;45.53;;
16699;SDS011;8466;52.286;21.124;2023-02-11T08:38:47;55.20;;;47.50;;
16699;SDS011;8466;52.286;21.124;2023-02-11T08:41:18;64.60;;;57.93;;
16699;SDS011;8466;52.286;21.124;2023-02-11T08:43:46;64.13;;;57.63;;
16699;SDS011;8466;52.286;21.124;2023-02-11T08:46:16;80.23;;;73.17;;
16699;SDS011;8466;52.286;21.124;2023-02-11T08:48:46;52.00;;;46.35;;
16699;SDS011;8466;52.286;21.124;2023-02-11T08:51:16;60.60;;;52.77;;
16699;SDS011;8466;52.286;21.124;2023-02-11T08:53:46;81.33;;;72.73;;
16699;SDS011;8466;52.286;21.124;2023-02-11T08:56:15;70.50;;;63.37;;
16699;SDS011;8466;52.286;21.124;2023-02-11T08:58:46;72.40;;;65.03;;
16699;SDS011;8466;52.286;21.124;2023-02-11T09:01:16;76.60;;;69.07;;
16699;SDS011;8466;52.286;21.124;2023-02-11T09:03:48;68.80;;;61.43;;
16699;SDS011;8466;52.286;21.124;2023-02-11T09:06:18;75.07;;;67.93;;
16699;SDS011;8466;52.286;21.124;2023-02-11T09:08:49;79.83;;;72.27;;
16699;SDS011;8466;52.286;21.124;2023-02-11T09:11:20;73.77;;;66.90;;
16699;SDS011;8466;52.286;21.124;2023-02-11T09:13:56;71.17;;;64.43;;
16699;SDS011;8466;52.286;21.124;2023-02-11T09:16:26;76.70;;;69.37;;
16699;SDS011;8466;52.286;21.124;2023-02-11T09:18:57;84.63;;;77.17;;
16699;SDS011;8466;52.286;21.124;2023-02-11T09:21:26;43.20;;;38.35;;
16699;SDS011;8466;52.286;21.124;2023-02-11T09:23:56;61.63;;;55.87;;
16699;SDS011;8466;52.286;21.124;2023-02-11T09:26:25;65.50;;;59.37;;
16699;SDS011;8466;52.286;21.124;2023-02-11T09:28:57;94.13;;;86.30;;
16699;SDS011;8466;52.286;21.124;2023-02-11T09:31:27;75.33;;;68.47;;
16699;SDS011;8466;52.286;21.124;2023-02-11T09:33:58;76.83;;;70.00;;
16699;SDS011;8466;52.286;21.124;2023-02-11T09:36:30;73.40;;;66.57;;
16699;SDS011;8466;52.286;21.124;2023-02-11T09:39:00;69.30;;;63.20;;
16699;SDS011;8466;52.286;21.124;2023-02-11T09:41:36;79.17;;;72.07;;
16699;SDS011;8466;52.286;21.124;2023-02-11T09:44:21;66.57;;;60.17;;
16699;SDS011;8466;52.286;21.124;2023-02-11T09:46:53;69.23;;;62.93;;
16699;SDS011;8466;52.286;21.124;2023-02-11T09:49:24;65.87;;;59.33;;
16699;SDS011;8466;52.286;21.124;2023-02-11T09:52:02;73.33;;;66.47;;
16699;SDS011;8466;52.286;21.124;2023-02-11T09:54:35;64.10;;;57.50;;
16699;SDS011;8466;52.286;21.124;2023-02-11T09:57:19;57.60;;;51.43;;
16699;SDS011;8466;52.286;21.124;2023-02-11T09:59:56;65.17;;;58.40;;
16699;SDS011;8466;52.286;21.124;2023-02-11T10:02:26;64.20;;;57.43;;
16699;SDS011;8466;52.286;21.124;2023-02-11T10:08:07;66.03;;;59.17;;
16699;SDS011;8466;52.286;21.124;2023-02-11T10:10:44;66.80;;;59.80;;
16699;SDS011;8466;52.286;21.124;2023-02-11T10:13:27;64.97;;;58.57;;
16699;SDS011;8466;52.286;21.124;2023-02-11T10:16:15;62.20;;;55.80;;
16699;SDS011;8466;52.286;21.124;2023-02-11T10:19:07;57.87;;;51.77;;
16699;SDS011;8466;52.286;21.124;2023-02-11T10:21:49;65.10;;;58.10;;
16699;SDS011;8466;52.286;21.124;2023-02-11T10:24:23;63.87;;;54.07;;
16699;SDS011;8466;52.286;21.124;2023-02-11T10:27:07;62.27;;;50.40;;
16699;SDS011;8466;52.286;21.124;2023-02-11T10:29:48;90.93;;;67.67;;
16699;SDS011;8466;52.286;21.124;2023-02-11T10:32:31;69.03;;;59.73;;
16699;SDS011;8466;52.286;21.124;2023-02-11T10:35:11;65.03;;;58.07;;
16699;SDS011;8466;52.286;21.124;2023-02-11T10:37:43;59.87;;;53.43;;
16699;SDS011;8466;52.286;21.124;2023-02-11T10:40:13;62.17;;;53.33;;
16699;SDS011;8466;52.286;21.124;2023-02-11T10:42:43;61.90;;;55.67;;
16699;SDS011;8466;52.286;21.124;2023-02-11T10:45:16;66.93;;;57.13;;
16699;SDS011;8466;52.286;21.124;2023-02-11T10:47:51;59.30;;;52.13;;
16699;SDS011;8466;52.286;21.124;2023-02-11T10:50:22;60.30;;;53.77;;
16699;SDS011;8466;52.286;21.124;2023-02-11T10:53:00;58.83;;;49.50;;
16699;SDS011;8466;52.286;21.124;2023-02-11T10:55:46;56.57;;;50.50;;
16699;SDS011;8466;52.286;21.124;2023-02-11T10:58:21;57.53;;;51.07;;
16699;SDS011;8466;52.286;21.124;2023-02-11T11:00:52;63.40;;;56.73;;
16699;SDS011;8466;52.286;21.124;2023-02-11T11:03:25;61.17;;;54.53;;
16699;SDS011;8466;52.286;21.124;2023-02-11T11:05:56;58.47;;;48.20;;
16699;SDS011;8466;52.286;21.124;2023-02-11T11:08:36;63.00;;;54.97;;
16699;SDS011;8466;52.286;21.124;2023-02-11T11:11:08;59.70;;;53.07;;
16699;SDS011;8466;52.286;21.124;2023-02-11T11:13:39;60.83;;;53.33;;
16699;SDS011;8466;52.286;21.124;2023-02-11T11:16:22;60.90;;;51.00;;
16699;SDS011;8466;52.286;21.124;2023-02-11T11:21:48;61.67;;;50.37;;
16699;SDS011;8466;52.286;21.124;2023-02-11T11:24:18;65.40;;;57.37;;
16699;SDS011;8466;52.286;21.124;2023-02-11T11:26:53;69.47;;;61.87;;
16699;SDS011;8466;52.286;21.124;2023-02-11T11:29:26;66.50;;;55.83;;
16699;SDS011;8466;52.286;21.124;2023-02-11T11:32:01;65.93;;;57.10;;
16699;SDS011;8466;52.286;21.124;2023-02-11T11:34:33;64.67;;;57.63;;
16699;SDS011;8466;52.286;21.124;2023-02-11T11:37:09;71.47;;;61.90;;
16699;SDS011;8466;52.286;21.124;2023-02-11T11:39:38;71.33;;;57.33;;
16699;SDS011;8466;52.286;21.124;2023-02-11T11:42:21;73.97;;;57.43;;
16699;SDS011;8466;52.286;21.124;2023-02-11T11:44:56;72.03;;;55.73;;
16699;SDS011;8466;52.286;21.124;2023-02-11T11:47:28;67.10;;;54.10;;
16699;SDS011;8466;52.286;21.124;2023-02-11T11:50:14;72.67;;;56.73;;
16699;SDS011;8466;52.286;21.124;2023-02-11T11:52:53;76.97;;;61.97;;
16699;SDS011;8466;52.286;21.124;2023-02-11T11:55:30;73.57;;;59.27;;
16699;SDS011;8466;52.286;21.124;2023-02-11T11:58:03;75.27;;;58.80;;
16699;SDS011;8466;52.286;21.124;2023-02-11T12:00:34;76.97;;;61.13;;
16699;SDS011;8466;52.286;21.124;2023-02-11T12:06:29;72.83;;;59.20;;
16699;SDS011;8466;52.286;21.124;2023-02-11T12:09:08;84.50;;;67.93;;
16699;SDS011;8466;52.286;21.124;2023-02-11T12:11:52;82.20;;;62.53;;
16699;SDS011;8466;52.286;21.124;2023-02-11T12:14:34;83.30;;;66.77;;
16699;SDS011;8466;52.286;21.124;2023-02-11T12:17:12;83.27;;;65.50;;
16699;SDS011;8466;52.286;21.124;2023-02-11T12:19:59;91.97;;;81.27;;
16699;SDS011;8466;52.286;21.124;2023-02-11T12:22:50;83.60;;;72.40;;
16699;SDS011;8466;52.286;21.124;2023-02-11T12:25:31;80.23;;;64.90;;
16699;SDS011;8466;52.286;21.124;2023-02-11T12:28:15;69.43;;;61.93;;
16699;SDS011;8466;52.286;21.124;2023-02-11T12:30:57;70.63;;;59.70;;
16699;SDS011;8466;52.286;21.124;2023-02-11T12:34:00;71.50;;;61.40;;
16699;SDS011;8466;52.286;21.124;2023-02-11T12:36:58;73.73;;;61.47;;
16699;SDS011;8466;52.286;21.124;2023-02-11T12:39:38;76.53;;;61.73;;
16699;SDS011;8466;52.286;21.124;2023-02-11T12:42:32;77.10;;;62.43;;
16699;SDS011;8466;52.286;21.124;2023-02-11T12:45:37;68.97;;;56.57;;
16699;SDS011;8466;52.286;21.124;2023-02-11T12:48:24;72.97;;;60.17;;
16699;SDS011;8466;52.286;21.124;2023-02-11T12:51:06;71.13;;;55.40;;
16699;SDS011;8466;52.286;21.124;2023-02-11T12:53:52;72.70;;;58.93;;
16699;SDS011;8466;52.286;21.124;2023-02-11T12:56:39;70.33;;;57.00;;
16699;SDS011;8466;52.286;21.124;2023-02-11T12:59:14;67.90;;;56.37;;
16699;SDS011;8466;52.286;21.124;2023-02-11T13:01:46;75.67;;;63.03;;
16699;SDS011;8466;52.286;21.124;2023-02-11T13:04:20;61.07;;;53.63;;
16699;SDS011;8466;52.286;21.124;2023-02-11T13:06:53;65.70;;;53.50;;
16699;SDS011;8466;52.286;21.124;2023-02-11T13:09:29;62.30;;;47.50;;
16699;SDS011;8466;52.286;21.124;2023-02-11T13:12:04;68.43;;;60.53;;
16699;SDS011;8466;52.286;21.124;2023-02-11T13:14:48;66.60;;;59.17;;
16699;SDS011;8466;52.286;21.124;2023-02-11T13:17:21;71.53;;;63.30;;
16699;SDS011;8466;52.286;21.124;2023-02-11T13:19:57;74.20;;;61.37;;
16699;SDS011;8466;52.286;21.124;2023-02-11T13:22:30;77.87;;;69.40;;
16699;SDS011;8466;52.286;21.124;2023-02-11T13:25:01;77.10;;;68.97;;
16699;SDS011;8466;52.286;21.124;2023-02-11T13:27:39;71.17;;;59.17;;
16699;SDS011;8466;52.286;21.124;2023-02-11T13:30:21;73.63;;;65.60;;
16699;SDS011;8466;52.286;21.124;2023-02-11T13:33:04;68.57;;;59.17;;
16699;SDS011;8466;52.286;21.124;2023-02-11T13:35:46;70.20;;;59.97;;
16699;SDS011;8466;52.286;21.124;2023-02-11T13:38:36;72.83;;;61.37;;
16699;SDS011;8466;52.286;21.124;2023-02-11T13:41:12;74.57;;;64.17;;
16699;SDS011;8466;52.286;21.124;2023-02-11T13:43:55;69.80;;;59.30;;
16699;SDS011;8466;52.286;21.124;2023-02-11T13:46:26;70.47;;;62.30;;
16699;SDS011;8466;52.286;21.124;2023-02-11T13:49:14;73.10;;;62.40;;
16699;SDS011;8466;52.286;21.124;2023-02-11T13:51:46;70.83;;;58.57;;
16699;SDS011;8466;52.286;21.124;2023-02-11T13:54:19;70.63;;;62.60;;
16699;SDS011;8466;52.286;21.124;2023-02-11T13:59:58;66.83;;;53.70;;
16699;SDS011;8466;52.286;21.124;2023-02-11T14:02:30;68.53;;;58.97;;
16699;SDS011;8466;52.286;21.124;2023-02-11T14:05:19;67.10;;;57.53;;
16699;SDS011;8466;52.286;21.124;2023-02-11T14:08:19;62.97;;;56.07;;
16699;SDS011;8466;52.286;21.124;2023-02-11T14:11:09;63.43;;;50.33;;
16699;SDS011;8466;52.286;21.124;2023-02-11T14:19:47;67.23;;;55.80;;
16699;SDS011;8466;52.286;21.124;2023-02-11T14:22:17;64.93;;;51.90;;
16699;SDS011;8466;52.286;21.124;2023-02-11T14:24:50;70.03;;;59.77;;
16699;SDS011;8466;52.286;21.124;2023-02-11T14:27:28;69.67;;;56.80;;
16699;SDS011;8466;52.286;21.124;2023-02-11T14:30:18;69.70;;;62.07;;
16699;SDS011;8466;52.286;21.124;2023-02-11T14:36:04;69.73;;;61.27;;
16699;SDS011;8466;52.286;21.124;2023-02-11T14:38:46;74.47;;;62.87;;
16699;SDS011;8466;52.286;21.124;2023-02-11T14:41:22;78.10;;;69.50;;
16699;SDS011;8466;52.286;21.124;2023-02-11T14:43:54;69.13;;;58.93;;
16699;SDS011;8466;52.286;21.124;2023-02-11T14:46:25;63.30;;;55.97;;
16699;SDS011;8466;52.286;21.124;2023-02-11T14:49:00;71.47;;;64.13;;
16699;SDS011;8466;52.286;21.124;2023-02-11T14:51:32;64.27;;;56.17;;
16699;SDS011;8466;52.286;21.124;2023-02-11T14:54:05;63.40;;;56.00;;
16699;SDS011;8466;52.286;21.124;2023-02-11T14:56:40;65.80;;;57.90;;
16699;SDS011;8466;52.286;21.124;2023-02-11T14:59:14;60.90;;;52.60;;
16699;SDS011;8466;52.286;21.124;2023-02-11T15:01:45;66.47;;;56.20;;
16699;SDS011;8466;52.286;21.124;2023-02-11T15:04:25;63.20;;;56.60;;
16699;SDS011;8466;52.286;21.124;2023-02-11T15:06:55;64.33;;;53.43;;
16699;SDS011;8466;52.286;21.124;2023-02-11T15:09:28;65.37;;;56.47;;
16699;SDS011;8466;52.286;21.124;2023-02-11T15:12:01;56.00;;;49.33;;
16699;SDS011;8466;52.286;21.124;2023-02-11T15:14:31;58.53;;;47.27;;
16699;SDS011;8466;52.286;21.124;2023-02-11T15:17:02;56.23;;;49.50;;
16699;SDS011;8466;52.286;21.124;2023-02-11T15:19:37;56.40;;;50.43;;
16699;SDS011;8466;52.286;21.124;2023-02-11T15:22:14;56.77;;;50.30;;
16699;SDS011;8466;52.286;21.124;2023-02-11T15:24:56;64.13;;;53.90;;
16699;SDS011;8466;52.286;21.124;2023-02-11T15:27:26;70.57;;;60.77;;
16699;SDS011;8466;52.286;21.124;2023-02-11T15:30:07;67.33;;;59.90;;
16699;SDS011;8466;52.286;21.124;2023-02-11T15:32:55;77.63;;;69.63;;
16699;SDS011;8466;52.286;21.124;2023-02-11T15:35:28;77.87;;;69.57;;
16699;SDS011;8466;52.286;21.124;2023-02-11T15:37:58;104.47;;;86.73;;
16699;SDS011;8466;52.286;21.124;2023-02-11T15:40:28;88.33;;;76.70;;